Terminal Aerodrome Forecast
Issued by NWS Cleveland, OH

Home | Current Version | Previous Version | Text Only | Print | Product List | Glossary Off
Versions: 1 2 3 4 5 6 7 8 9 10 11 12 13 14

000
FTUS41 KCLE 181130
TAFYNG
TAF
KYNG 181130Z 1812/1912 00000KT P6SM BKN250
      TEMPO 1812/1814 5SM BR
     FM181800 23004KT P6SM SCT120 OVC250
     FM182100 02006KT P6SM OVC120=

USA.gov is the U.S. government's official web portal to all federal, state and local government web resources and services.